Date,TemperatureHighF,TemperatureAvgF,TemperatureLowF,DewpointHighF,DewpointAvgF,DewpointLowF,HumidityHigh,HumidityAvg,HumidityLow,PressureMaxIn,PressureMinIn,WindSpeedMaxMPH,WindSpeedAvgMPH,GustSpeedMaxMPH,PrecipitationSumIn
2013-1-1,34,29,21,34,28,21,99,99,99,30.20,30.02,10,5,0,0.00
2013-1-2,32,22,13,22,17,9,99,83,40,30.27,30.16,5,2,0,0.00
2013-1-3,40,25,12,37,24,12,99,96,79,30.38,30.19,7,1,0,0.00
2013-1-4,41,28,16,37,25,16,99,92,65,30.44,30.32,5,1,0,0.00
2013-1-5,42,33,20,41,33,20,99,99,89,30.32,30.14,7,2,0,0.00
2013-1-6,39,34,21,39,33,21,99,97,84,30.37,30.06,11,4,0,0.00
2013-1-7,43,28,16,36,26,16,99,92,63,30.43,30.16,9,2,0,0.00
2013-1-8,48,35,23,46,33,23,99,94,59,30.22,30.12,6,2,0,0.00
2013-1-9,58,48,43,58,48,42,99,98,78,30.42,30.18,7,2,0,0.00
2013-1-10,64,51,42,64,51,42,99,99,99,30.41,29.78,10,5,0,0.00
2013-1-11,62,58,54,62,58,54,99,99,99,29.91,29.78,11,5,0,0.00
2013-1-12,68,58,40,67,57,40,99,99,99,29.91,29.64,14,4,0,0.00
2013-1-13,39,30,22,39,30,22,99,99,99,30.30,29.80,12,6,0,0.00
2013-1-14,27,22,17,27,22,17,99,99,99,30.45,30.30,8,4,0,0.00
2013-1-15,30,26,19,30,25,19,99,99,99,30.34,30.07,7,4,0,0.00
2013-1-16,37,31,28,33,30,25,99,94,63,30.11,30.02,8,3,0,0.00
2013-1-17,44,34,26,44,34,26,99,99,86,30.46,30.08,18,4,0,0.00
2013-1-18,47,35,22,40,31,21,99,88,57,30.51,30.18,14,4,0,0.00
2013-1-19,56,46,38,51,41,32,99,84,57,30.19,29.95,15,7,0,0.00
2013-1-20,47,37,26,46,27,16,99,71,37,30.28,30.05,9,4,0,0.00
2013-1-21,31,25,18,25,13,3,97,63,44,30.34,30.20,17,7,0,0.00
2013-1-22,24,20,14,14,3,-2,81,48,38,30.45,30.34,7,3,0,0.00
2013-1-23,46,30,14,32,23,14,99,78,47,30.35,30.10,7,2,0,0.00
2013-1-24,32,26,19,29,15,8,94,62,41,30.55,30.23,11,6,0,0.00
2013-1-25,42,32,27,33,23,9,99,73,42,30.22,30.07,9,3,0,0.00
2013-1-26,41,33,27,32,26,20,99,79,44,30.34,30.17,6,2,0,0.00
2013-1-27,52,37,25,52,37,24,99,99,99,30.27,29.99,9,4,0,0.00
2013-1-28,63,59,52,63,58,52,99,99,99,30.00,29.91,15,6,0,0.00
2013-1-29,72,64,53,71,64,53,99,99,92,29.93,29.34,22,9,0,0.00
2013-1-30,54,44,31,54,44,26,99,98,81,29.86,29.34,20,8,0,0.00
2013-1-31,41,30,17,36,25,9,99,82,60,30.30,29.87,17,8,0,0.00
2013-2-1,28,20,10,24,10,3,94,68,48,30.50,30.26,17,5,0,0.00
2013-2-2,46,35,25,35,28,22,99,76,50,30.26,30.01,11,5,0,0.00
2013-2-3,37,32,26,36,30,23,99,92,60,30.13,29.94,16,4,0,0.00
2013-2-4,47,39,26,47,37,26,99,94,60,30.02,29.78,14,5,0,0.00
2013-2-5,57,40,25,46,36,25,99,88,50,30.05,29.87,8,2,0,0.00
2013-2-6,52,40,26,44,36,26,99,88,54,30.22,30.04,7,2,0,0.00
2013-2-7,67,51,32,62,47,32,99,89,59,30.04,29.78,11,5,0,0.00
2013-2-8,45,38,32,44,38,32,99,99,99,30.33,29.91,15,7,0,0.00
2013-2-9,49,39,31,42,35,30,99,87,56,30.33,30.01,9,3,0,0.00
2013-2-10,56,50,40,56,50,40,99,98,75,30.00,29.61,13,6,0,0.00
2013-2-11,55,46,31,53,34,30,99,67,40,30.09,29.76,18,6,0,0.00
2013-2-12,50,40,26,45,35,26,99,86,60,30.12,29.83,6,2,0,0.00
2013-2-13,53,42,35,46,39,35,99,92,56,29.86,29.79,10,4,0,0.00
2013-2-14,62,47,36,47,40,36,99,78,46,29.98,29.82,10,4,0,0.00
2013-2-15,43,37,25,41,30,19,99,77,43,30.19,29.98,11,4,0,0.00
2013-2-16,38,29,21,27,21,12,99,77,36,30.20,30.13,11,4,0,0.00
2013-2-17,48,34,17,29,24,16,99,71,40,30.19,29.96,11,4,0,0.00
2013-2-18,58,48,41,54,45,29,99,90,61,29.96,29.56,18,8,0,0.00
2013-2-19,43,35,26,41,25,16,99,71,37,30.24,29.81,17,7,0,0.00
2013-2-20,30,26,22,27,19,14,99,77,63,30.34,30.23,8,4,0,0.00
2013-2-21,33,28,22,33,28,22,99,98,85,30.27,29.77,11,4,0,0.00
2013-2-22,43,35,27,43,35,26,99,99,99,30.03,29.76,13,3,0,0.00
2013-2-23,43,32,23,34,28,23,99,87,56,30.02,29.92,7,2,0,0.00
2013-2-24,50,36,20,39,30,20,99,84,49,30.11,29.97,6,2,0,0.00
2013-2-25,53,43,31,43,35,31,99,76,55,30.01,29.48,20,7,0,0.00
2013-2-26,51,43,37,51,43,37,99,99,99,29.59,29.27,17,6,0,0.00
2013-2-27,41,37,32,40,36,32,99,98,85,29.83,29.60,14,7,0,0.00
2013-2-28,38,34,32,38,34,32,99,99,99,30.04,29.82,11,5,0,0.00
2013-3-1,37,33,30,37,33,30,99,99,99,30.08,29.99,9,5,0,0.00
2013-3-2,33,30,26,33,28,22,99,93,71,30.16,30.07,12,7,0,0.00
2013-3-3,43,32,20,34,24,19,99,75,41,30.15,30.01,7,2,0,0.00
2013-3-4,56,46,35,48,36,28,99,71,47,30.03,29.71,12,4,0,0.00
2013-3-5,45,37,32,45,37,28,99,97,78,30.00,29.68,20,7,0,0.01
2013-3-6,41,35,31,36,33,30,99,91,70,30.29,30.00,19,8,0,0.00
2013-3-7,47,35,24,39,32,24,99,89,61,30.38,30.28,6,2,0,0.00
2013-3-8,55,41,26,41,35,26,99,80,51,30.41,30.20,9,3,0,0.00
2013-3-9,75,54,41,42,40,37,94,63,36,30.19,29.84,11,5,0,0.93
2013-3-10,67,58,50,64,51,39,99,78,50,29.83,29.62,17,7,0,0.50
2013-3-11,51,41,36,51,41,36,99,99,99,29.95,29.66,12,4,0,0.02
2013-3-12,53,41,29,37,31,22,99,72,39,30.15,29.95,14,5,0,0.00
2013-3-13,43,36,26,36,27,21,99,72,46,30.37,30.13,16,6,0,0.00
2013-3-14,45,34,22,39,30,22,99,86,55,30.36,30.07,12,3,0,0.00
2013-3-15,75,53,28,61,45,28,99,79,44,30.07,29.66,11,3,0,0.00
2013-3-16,67,55,40,61,53,40,99,92,72,29.97,29.62,18,7,0,0.00
2013-3-17,41,38,35,40,38,35,99,99,99,30.02,29.74,11,5,0,2.96
2013-3-18,49,44,38,48,43,38,99,99,99,29.91,29.57,10,4,0,1.30
2013-3-19,51,41,28,41,28,20,99,66,30,30.18,29.92,13,4,0,0.00
2013-3-20,41,34,24,38,26,17,99,76,47,30.19,30.07,19,5,0,0.00
2013-3-21,42,31,20,30,22,16,99,73,45,30.07,29.94,8,3,0,0.00
2013-3-22,44,37,32,32,28,25,88,70,53,30.00,29.92,7,3,0,0.00
2013-3-23,56,47,38,48,36,28,99,68,49,29.97,29.72,11,4,0,0.04
2013-3-24,45,37,32,45,37,32,99,99,99,29.73,29.38,19,6,0,0.50
2013-3-25,37,34,32,37,33,31,99,99,99,30.10,29.68,15,7,0,0.14
2013-3-26,44,36,29,39,32,29,99,85,57,30.30,30.11,12,5,0,0.01
2013-3-27,53,39,23,44,28,11,99,67,45,30.36,30.24,9,2,0,0.00
2013-3-28,60,47,36,46,39,35,99,76,47,30.33,30.19,7,3,0,0.00
2013-3-29,57,48,42,56,45,20,99,89,42,30.23,30.14,5,2,0,0.29
2013-3-30,57,48,38,57,38,4,99,73,22,30.17,29.85,7,2,0,0.45
2013-3-31,71,57,49,62,48,28,99,74,43,29.88,29.78,9,3,0,0.00
2013-4-1,53,47,34,53,36,26,99,68,37,30.16,29.84,11,5,0,0.00
2013-4-2,51,41,27,36,26,10,99,61,19,30.29,30.16,7,2,0,0.00
2013-4-3,55,43,29,39,29,24,99,64,34,30.32,30.17,10,3,0,0.00
2013-4-4,63,48,35,36,30,25,80,52,25,30.16,29.95,9,3,0,0.00
2013-4-5,70,52,31,47,39,31,99,68,31,30.08,30.00,12,2,0,0.00
2013-4-6,74,62,45,50,46,42,99,60,35,30.02,29.77,18,6,0,0.00
2013-4-7,78,68,62,70,60,50,99,76,57,29.89,29.80,11,6,0,0.00
2013-4-8,77,68,60,71,66,60,99,92,64,29.84,29.75,16,6,0,0.00
2013-4-9,83,71,62,77,70,62,99,95,70,29.91,29.77,14,5,0,0.00
2013-4-10,82,76,65,81,75,65,99,97,88,29.82,29.59,13,6,0,0.51
2013-4-11,66,54,42,66,54,41,99,99,95,29.70,29.53,12,5,0,0.64
2013-4-12,60,46,36,46,40,34,99,82,49,29.99,29.68,13,5,0,0.00
2013-4-13,68,51,33,52,42,32,99,75,42,30.03,29.89,9,2,0,0.00
2013-4-14,80,63,46,62,53,46,99,73,41,29.88,29.65,12,5,0,0.00
2013-4-15,81,69,59,74,67,59,99,94,71,29.87,29.72,9,4,0,0.00
2013-4-16,75,65,56,74,65,56,99,99,94,30.03,29.79,9,3,0,0.00
2013-4-17,86,71,55,84,70,55,99,97,80,30.04,29.72,14,4,0,0.00
2013-4-18,78,68,44,76,67,43,99,96,64,29.71,29.55,17,8,0,2.90
2013-4-19,55,45,37,43,37,32,99,76,46,30.03,29.66,16,6,0,0.00
2013-4-20,63,48,32,45,35,21,99,64,34,30.28,30.02,9,3,0,0.00
2013-4-21,67,53,39,44,40,38,99,66,38,30.39,30.21,7,3,0,0.00
2013-4-22,76,60,39,59,47,21,99,68,39,30.22,29.97,7,2,0,0.00
2013-4-23,74,61,46,73,60,45,99,97,88,29.99,29.73,14,4,0,0.06
2013-4-24,58,45,37,47,41,33,99,87,50,30.22,29.84,11,4,0,0.43
2013-4-25,69,51,32,52,38,14,99,64,27,30.29,30.21,10,2,0,0.00
2013-4-26,58,52,44,57,49,31,99,92,46,30.38,30.22,5,1,0,0.09
2013-4-27,58,55,51,57,30,6,99,49,12,30.27,29.83,7,2,0,0.11
2013-4-28,62,58,54,62,53,8,99,88,13,29.89,29.80,7,3,0,0.02
2013-4-29,76,63,47,68,50,-10,99,71,7,29.93,29.79,9,2,0,0.00
2013-4-30,87,72,54,69,58,-3,99,65,9,29.91,29.80,7,2,0,0.00
2013-5-1,86,72,54,73,64,37,99,80,50,30.02,29.90,5,1,0,0.00
2013-5-2,82,68,57,72,54,-42,99,73,1,30.07,29.95,10,2,0,0.05
2013-5-3,59,53,44,58,35,-19,99,61,4,29.96,29.70,6,2,0,1.45
2013-5-4,57,47,42,53,39,21,99,76,41,29.93,29.80,6,2,0,0.32
2013-5-5,62,53,46,62,48,22,99,87,35,29.91,29.76,5,1,0,0.60
2013-5-6,66,59,53,66,58,47,99,98,77,29.89,29.77,6,2,0,0.00
2013-5-7,79,65,52,69,55,22,99,71,27,29.94,29.86,6,2,0,0.00
2013-5-8,86,70,52,71,52,21,99,57,27,29.98,29.88,6,1,0,0.00
2013-5-9,83,73,62,75,67,60,99,84,47,29.94,29.79,14,3,0,0.00
2013-5-10,80,68,60,74,67,60,99,96,68,29.91,29.76,9,3,0,0.68
2013-5-11,75,62,52,61,54,40,99,77,37,30.07,29.88,11,5,0,0.00
2013-5-12,67,54,39,46,39,33,99,64,30,30.18,30.07,14,3,0,0.00
2013-5-13,77,59,40,58,39,20,99,51,22,30.20,30.03,7,1,0,0.00
2013-5-14,91,75,53,70,62,47,99,67,41,30.03,29.79,10,3,0,0.00
2013-5-15,90,78,67,74,68,63,99,75,46,29.95,29.82,12,4,0,0.00
2013-5-16,86,76,67,75,69,62,99,83,46,29.92,29.82,11,2,0,0.00
2013-5-17,79,71,64,78,70,64,99,99,97,29.92,29.86,5,1,0,0.01
2013-5-18,87,74,63,80,68,45,99,83,51,29.94,29.86,5,1,0,0.00
2013-5-19,92,80,68,88,77,68,99,93,66,29.86,29.74,10,2,0,0.00
2013-5-20,90,80,72,83,78,72,99,93,67,29.87,29.71,8,3,0,0.00
2013-5-21,83,72,65,78,69,52,99,92,61,29.83,29.67,8,3,0,0.56
2013-5-22,83,72,64,74,68,63,99,89,56,29.81,29.66,14,4,0,0.00
2013-5-23,72,64,55,67,62,55,99,93,68,30.15,29.81,10,4,0,0.00
2013-5-24,76,59,42,55,48,42,99,72,35,30.33,30.14,7,2,0,0.00
2013-5-25,80,64,45,62,54,45,99,73,43,30.32,30.09,4,1,0,0.00
2013-5-26,86,73,58,74,65,58,99,79,52,30.15,30.00,5,2,0,0.00
2013-5-27,88,75,63,78,69,63,99,85,46,30.01,29.79,10,2,0,0.15
2013-5-28,90,79,68,80,72,68,99,82,56,29.91,29.81,18,4,0,0.00
2013-5-29,91,80,64,77,72,64,99,79,51,29.98,29.84,7,2,0,0.00
2013-5-30,88,80,74,81,77,74,99,90,67,29.92,29.81,9,4,0,0.00
2013-5-31,86,76,67,84,75,64,99,96,81,29.88,29.74,9,3,0,0.84
2013-6-1,79,69,64,78,68,61,99,98,84,29.90,29.69,8,3,0,2.43
2013-6-2,76,68,61,70,66,61,99,94,74,29.94,29.83,10,3,0,0.00
2013-6-3,76,65,55,67,61,54,99,87,59,30.02,29.92,8,2,0,0.00
2013-6-4,83,68,51,70,62,50,99,83,56,30.03,29.92,6,1,0,0.00
2013-6-5,87,75,60,75,68,60,99,81,50,29.93,29.76,4,1,0,0.00
2013-6-6,85,74,67,75,70,67,99,88,56,29.77,29.72,9,2,0,0.02
2013-6-7,82,71,63,71,67,63,99,88,60,29.83,29.74,9,3,0,0.00
2013-6-8,87,72,58,73,64,57,99,79,43,29.92,29.82,5,1,0,0.00
2013-6-9,83,72,64,80,70,63,99,95,69,29.92,29.75,5,1,0,0.17
2013-6-10,85,73,64,76,62,-25,99,80,2,29.85,29.74,11,2,0,0.16
2013-6-11,96,80,61,85,74,60,99,84,59,29.93,29.81,6,1,0,0.00
2013-6-12,97,87,75,85,80,74,99,82,55,29.93,29.71,11,3,0,0.00
2013-6-13,91,80,70,82,74,66,99,84,47,29.91,29.70,10,4,0,0.00
2013-6-14,88,75,58,71,65,58,99,75,45,30.02,29.88,9,1,0,0.00
2013-6-15,93,78,63,76,69,62,99,77,47,30.03,29.89,7,1,0,0.00
2013-6-16,91,79,70,84,76,70,99,93,61,29.96,29.86,7,1,0,0.03
2013-6-17,93,75,67,84,72,67,99,93,58,29.88,29.80,7,1,0,0.21
2013-6-18,93,77,63,79,71,63,99,84,52,29.89,29.78,6,2,0,0.00
2013-6-19,92,78,64,79,72,64,99,82,50,30.00,29.88,5,1,0,0.00
2013-6-20,94,81,68,80,74,67,99,83,47,30.06,29.98,5,1,0,0.00
2013-6-21,97,83,70,81,76,70,99,83,52,30.09,29.98,6,1,0,0.00
2013-6-22,94,81,69,82,75,69,99,86,54,30.07,29.93,8,2,0,0.13
2013-6-23,91,77,68,82,74,67,99,93,71,30.04,29.93,10,2,0,0.37
2013-6-24,94,80,68,85,76,68,99,89,61,30.06,29.93,6,2,0,0.00
2013-6-25,95,85,75,85,80,74,99,86,62,29.96,29.77,9,3,0,0.00
2013-6-26,94,81,74,87,79,74,99,94,76,29.85,29.65,18,3,0,2.24
2013-6-27,100,85,74,85,74,-11,99,76,3,29.78,29.69,10,3,0,0.01
2013-6-28,95,83,71,82,71,60,99,72,34,29.77,29.60,9,3,0,0.00
2013-6-29,88,76,64,71,68,64,99,80,52,29.63,29.52,11,3,0,0.21
2013-6-30,81,70,64,76,69,63,99,96,77,29.78,29.62,11,3,0,0.19
2013-7-1,72,68,66,72,67,65,99,99,99,29.85,29.75,7,3,0,0.23
2013-7-2,69,66,64,68,66,64,99,99,99,29.95,29.80,8,2,0,1.32
2013-7-3,86,72,63,71,47,-38,99,54,1,30.04,29.94,4,1,0,0.00
2013-7-4,87,74,60,75,69,59,99,85,59,30.02,29.92,7,1,0,0.00
2013-7-5,85,76,65,76,72,65,99,91,72,30.02,29.94,5,1,0,0.00
2013-7-6,92,76,67,78,73,67,99,89,59,30.04,29.91,4,1,0,0.21
2013-7-7,93,79,63,82,73,62,99,86,57,30.02,29.94,5,1,0,0.01
2013-7-8,94,82,71,83,77,71,99,87,58,30.06,29.96,6,1,0,0.00
2013-7-9,97,86,76,87,81,76,99,86,59,30.02,29.87,5,2,0,0.00
2013-7-10,90,82,77,84,81,76,99,95,74,29.90,29.81,9,2,0,0.00
2013-7-11,88,78,66,79,70,65,99,81,49,29.97,29.86,6,2,0,0.00
2013-7-12,89,76,62,71,66,62,99,77,45,30.03,29.93,6,2,0,0.00
2013-7-13,92,76,60,74,68,60,99,80,48,30.00,29.92,6,2,0,0.00
2013-7-14,93,78,65,84,75,64,99,91,61,30.07,29.96,7,2,0,0.00
2013-7-15,96,82,72,85,79,72,99,91,63,30.17,30.05,6,1,0,0.00
2013-7-16,97,84,71,84,78,71,99,84,55,30.23,30.15,4,1,0,0.00
2013-7-17,102,86,73,84,78,73,99,80,47,30.26,30.11,4,1,0,0.00
2013-7-18,98,86,75,88,81,74,99,87,54,30.14,29.96,4,1,0,0.00
2013-7-19,98,84,72,84,78,72,99,85,53,29.98,29.82,5,2,0,0.00
2013-7-20,96,82,70,84,77,70,99,88,61,29.89,29.70,6,2,0,1.14
2013-7-21,93,78,70,84,74,6,99,91,8,29.88,29.76,7,1,0,0.28
2013-7-22,96,80,70,84,73,-13,99,85,3,29.79,29.70,8,2,0,0.05
2013-7-23,97,83,73,84,78,72,99,89,63,29.80,29.66,9,2,0,0.00
2013-7-24,86,75,66,72,68,64,99,79,49,29.93,29.78,8,2,0,0.00
2013-7-25,85,72,59,69,64,58,99,80,50,30.03,29.93,6,1,0,0.00
2013-7-26,84,71,58,76,68,58,99,90,60,30.01,29.90,4,1,0,0.02
2013-7-27,83,73,61,75,67,60,99,82,50,29.92,29.83,8,3,0,0.12
2013-7-28,86,69,52,68,60,52,99,77,43,29.99,29.91,8,2,0,0.00
2013-7-29,82,72,59,73,67,58,99,86,64,30.09,29.97,5,1,0,0.00
2013-7-30,72,70,68,72,67,26,99,93,18,30.07,29.94,4,1,0,0.65
2013-7-31,88,77,70,80,66,-35,99,83,2,29.95,29.87,6,2,0,0.01
2013-8-1,91,77,67,77,70,64,99,82,44,29.99,29.91,7,2,0,0.00
2013-8-2,89,76,62,78,70,19,99,86,15,29.96,29.85,5,1,0,0.03
2013-8-3,91,77,70,82,73,1,99,89,6,30.02,29.84,6,1,0,0.48
2013-8-4,85,74,64,71,68,63,99,83,55,30.10,30.00,5,2,0,0.00
2013-8-5,79,69,62,74,68,61,99,96,73,30.03,29.85,4,1,0,0.36
2013-8-6,90,77,70,82,75,70,99,94,68,29.87,29.80,5,1,0,0.00
2013-8-7,89,77,70,82,73,-21,99,91,2,29.86,29.78,8,1,0,0.04
2013-8-8,91,77,68,84,70,-35,99,89,1,29.91,29.78,4,1,0,0.77
2013-8-9,86,77,73,82,76,73,99,98,83,29.97,29.83,5,1,0,0.58
2013-8-10,92,79,71,77,67,-20,99,75,2,30.05,29.96,4,1,0,0.00
2013-8-11,92,79,66,76,73,66,99,84,59,30.06,29.97,5,1,0,0.00
2013-8-12,88,78,70,84,77,70,99,97,86,30.00,29.81,5,1,0,0.18
2013-8-13,85,76,66,78,62,1,99,71,6,30.01,29.85,7,3,0,0.00
2013-8-14,80,67,56,66,59,56,99,79,47,30.10,30.02,8,2,0,0.00
2013-8-15,80,65,53,65,59,52,99,84,53,30.08,29.97,6,1,0,0.00
2013-8-16,81,69,54,69,63,53,99,84,60,30.04,30.00,6,1,0,0.00
2013-8-17,82,71,66,76,69,66,99,94,69,30.10,30.01,6,2,0,0.01
2013-8-18,88,74,65,76,66,-37,99,81,5,30.10,29.99,5,1,0,0.07
2013-8-19,90,76,65,80,67,-38,99,81,1,30.07,29.96,5,1,0,0.00
2013-8-20,94,79,67,84,69,-36,99,78,1,30.06,29.97,5,1,0,0.00
2013-8-21,95,80,68,83,72,22,99,80,17,30.09,29.98,5,1,0,0.00
2013-8-22,94,82,69,83,74,12,99,81,10,30.06,29.93,6,1,0,0.00
2013-8-23,93,81,71,82,72,-34,99,82,1,30.03,29.95,6,2,0,0.00
2013-8-24,92,79,66,82,70,-6,99,80,4,30.14,30.03,5,1,0,0.00
2013-8-25,94,79,63,83,70,-39,99,80,1,30.21,30.10,5,1,0,0.00
2013-8-26,93,82,71,84,74,-3,99,82,5,30.18,30.01,6,2,0,0.00
2013-8-27,93,82,72,83,78,72,99,89,67,30.03,29.92,7,2,0,0.00
2013-8-28,98,84,70,83,75,70,99,79,47,29.96,29.89,8,2,0,0.00
2013-8-29,100,85,74,82,77,73,99,80,49,29.95,29.86,7,2,0,0.00
2013-8-30,101,86,72,87,76,-18,99,79,2,29.89,29.76,5,1,0,0.00
2013-8-31,100,88,77,85,80,77,99,81,49,29.79,29.66,7,2,0,0.00
2013-9-1,92,83,74,83,79,74,99,90,65,29.77,29.67,7,2,0,0.00
2013-9-2,91,79,71,81,71,17,99,78,12,29.86,29.75,12,2,0,0.00
2013-9-3,88,75,61,77,68,61,99,82,47,30.00,29.86,7,2,0,0.00
2013-9-4,88,73,57,73,64,49,99,77,43,30.09,30.00,6,1,0,0.00
2013-9-5,89,73,57,76,65,17,99,80,13,30.14,30.06,4,1,0,0.00
2013-9-6,92,77,62,78,68,-25,99,78,2,30.11,29.98,6,1,0,0.00
2013-9-7,94,78,63,81,67,-13,99,76,4,30.01,29.87,7,2,0,0.00
2013-9-8,89,78,69,80,75,69,99,93,71,29.93,29.84,4,0,0,0.00
2013-9-9,99,84,72,86,75,-33,99,80,1,29.93,29.85,6,1,0,0.00
2013-9-10,95,83,74,85,79,74,99,87,52,30.05,29.93,5,1,0,0.00
2013-9-11,97,84,72,83,77,69,99,83,45,30.09,29.97,5,1,0,0.00
2013-9-12,90,79,69,81,71,20,99,80,14,29.99,29.88,7,2,0,0.00
2013-9-13,80,68,58,65,59,55,99,74,47,30.03,29.94,7,2,0,0.00
2013-9-14,80,63,47,60,53,47,99,76,38,30.10,29.98,6,1,0,0.00
2013-9-15,87,67,47,68,57,47,99,76,41,30.04,29.94,6,1,0,0.00
2013-9-16,78,69,64,72,67,63,99,93,74,30.16,30.00,6,2,0,0.29
2013-9-17,84,70,59,71,66,58,99,87,60,30.16,30.00,4,2,0,0.00
2013-9-18,89,76,66,79,73,66,99,92,69,30.05,29.92,6,1,0,0.00
2013-9-19,90,79,71,81,77,71,99,92,69,29.99,29.85,5,2,0,0.00
2013-9-20,78,72,66,77,68,-35,99,92,1,29.89,29.77,5,1,0,0.79
2013-9-21,76,65,54,65,57,-7,99,80,5,29.86,29.78,9,3,0,0.00
2013-9-22,81,63,48,64,55,48,99,79,42,29.94,29.84,5,1,0,0.00
2013-9-23,81,63,47,66,55,47,99,79,41,29.98,29.86,7,1,0,0.00
2013-9-24,83,68,53,76,65,53,99,92,72,29.89,29.73,5,1,0,0.02
2013-9-25,85,72,63,79,62,-37,99,81,1,29.81,29.73,5,1,0,0.00
2013-9-26,88,72,59,80,59,-40,99,74,4,29.96,29.80,4,1,0,0.00
2013-9-27,89,69,55,74,58,10,99,74,16,30.06,29.96,7,1,0,0.00
2013-9-28,85,71,57,74,55,-41,99,70,1,30.04,29.92,7,2,0,0.00
2013-9-29,71,67,64,68,57,-37,99,78,7,29.97,29.90,5,1,0,0.39
2013-9-30,74,68,64,74,62,-38,99,91,2,29.93,29.86,4,0,0,0.00
2013-10-1,79,71,65,77,66,-37,99,89,10,30.00,29.91,5,1,0,0.00
2013-10-2,86,72,67,84,61,-36,99,80,1,30.02,29.94,5,1,0,0.23
2013-10-3,86,76,68,81,72,68,99,89,63,29.97,29.86,7,1,0,0.00
2013-10-4,88,77,70,81,75,70,99,94,72,29.98,29.87,6,2,0,0.02
2013-10-5,84,73,69,84,69,-34,99,92,1,29.93,29.76,11,2,0,2.60
2013-10-6,71,59,48,67,51,-8,99,78,7,29.87,29.74,11,4,0,0.13
2013-10-7,69,57,48,56,52,48,99,85,57,30.09,29.85,9,2,0,0.00
2013-10-8,74,58,44,64,45,-31,99,72,3,30.17,30.06,7,1,0,0.00
2013-10-9,80,61,44,67,56,-4,99,87,11,30.13,30.02,5,1,0,0.00
2013-10-10,81,67,56,75,60,-13,99,82,5,30.09,29.95,5,1,0,0.00
2013-10-11,82,67,56,74,58,-42,99,81,1,29.99,29.88,8,1,0,0.00
2013-10-12,74,65,58,74,58,-41,99,88,1,30.09,29.92,4,1,0,0.14
2013-10-13,76,62,49,62,50,-44,99,72,1,30.29,30.09,5,2,0,0.00
2013-10-14,72,58,45,63,54,45,99,88,72,30.25,30.02,6,1,0,0.00
2013-10-15,72,65,60,70,63,-25,99,96,2,30.01,29.85,7,2,0,0.08
2013-10-16,66,58,48,62,51,-42,99,84,1,29.97,29.87,7,3,0,0.01
2013-10-17,65,54,45,59,50,-16,99,90,6,29.94,29.88,6,1,0,0.04
2013-10-18,69,55,40,60,48,-11,99,82,10,30.07,29.93,6,1,0,0.00
2013-10-19,59,49,40,52,45,40,99,88,53,30.05,29.95,10,3,0,0.15
2013-10-20,66,52,38,55,45,-17,99,82,7,30.06,29.96,11,2,0,0.00
2013-10-21,66,53,43,56,48,2,99,87,14,30.08,29.96,7,2,0,0.00
2013-10-22,60,48,34,52,38,-56,99,75,3,30.09,29.85,14,2,0,0.03
2013-10-23,52,46,40,49,40,34,99,81,52,30.14,29.93,14,4,0,0.00
2013-10-24,50,44,34,42,36,29,99,79,45,30.40,30.13,13,3,0,0.00
2013-10-25,54,40,28,43,30,-15,99,74,13,30.54,30.29,4,1,0,0.00
2013-10-26,61,48,34,51,42,33,99,81,59,30.28,30.02,11,2,0,0.00
2013-10-27,63,46,32,51,36,-58,99,74,15,30.15,30.04,6,1,0,0.00
2013-10-28,70,51,34,58,40,-55,99,74,1,30.26,30.08,4,0,0,0.00
2013-10-29,64,53,43,64,51,6,99,95,13,30.29,30.09,6,0,0,0.33
2013-10-30,78,69,64,75,67,63,99,92,74,30.11,29.93,10,3,0,0.07
2013-10-31,69,64,56,67,56,-38,99,85,2,29.92,29.45,11,4,0,1.61
2013-11-1,66,55,44,57,44,-48,99,75,1,29.87,29.68,10,3,0,0.01
2013-11-2,57,48,37,51,43,35,99,85,59,30.20,29.87,10,2,0,0.00
2013-11-3,60,45,32,49,36,-21,99,75,7,30.33,30.20,5,1,0,0.00
2013-11-4,62,51,40,53,45,-27,99,83,3,30.29,30.21,6,2,0,0.03
2013-11-5,66,58,50,56,49,12,99,74,16,30.33,30.11,6,2,0,0.01
2013-11-6,62,53,39,58,50,32,99,90,68,30.25,30.02,9,4,0,0.40
2013-11-7,54,42,33,53,32,-33,99,75,4,30.40,30.26,5,2,0,0.00
2013-11-8,59,48,32,52,35,-2,99,66,10,30.39,30.18,6,1,0,0.00
2013-11-9,66,53,39,55,46,38,99,79,56,30.22,30.12,11,3,0,0.00
2013-11-10,59,46,33,47,37,9,99,73,25,30.42,30.22,6,1,0,0.00
2013-11-11,63,48,34,53,32,-56,99,61,7,30.39,30.15,11,2,0,0.00
2013-11-12,40,33,24,39,27,23,99,79,55,30.71,30.40,13,4,0,0.01
2013-11-13,45,33,20,41,25,18,99,78,35,30.71,30.38,5,1,0,0.00
2013-11-14,55,43,27,34,28,25,99,59,33,30.38,30.13,12,3,0,0.00
2013-11-15,53,48,43,50,40,28,99,75,50,30.15,30.02,5,2,0,0.00
2013-11-16,66,60,50,65,53,40,99,79,50,30.03,29.75,14,5,0,0.09
2013-11-17,75,66,53,70,50,23,99,61,20,29.96,29.53,14,5,0,2.25
2013-11-18,59,47,32,49,39,30,99,76,36,30.30,29.97,14,3,0,0.00
2013-11-19,49,37,29,38,31,-22,99,81,8,30.36,30.23,6,1,0,0.00
2013-11-20,57,43,29,45,36,28,99,79,52,30.25,30.10,10,2,0,0.00
2013-11-21,57,53,46,54,47,-32,99,85,2,30.22,30.15,6,2,0,0.68
2013-11-22,54,46,39,54,35,-1,99,70,12,30.47,30.18,14,5,0,0.06
2013-11-23,40,32,22,34,24,15,99,73,51,30.69,30.46,15,6,0,0.00
2013-11-24,32,24,15,24,15,12,99,69,47,30.75,30.48,7,3,0,0.00
2013-11-25,39,34,27,37,25,19,99,72,53,30.48,30.20,9,2,0,0.00
2013-11-26,42,36,25,35,29,14,99,79,62,30.21,30.01,20,6,0,0.00
2013-11-27,30,23,17,29,13,10,99,68,45,30.37,30.18,16,6,0,0.00
2013-11-28,45,30,16,35,24,14,99,79,49,30.49,30.30,11,3,0,0.00
2013-11-29,52,35,20,37,27,-11,99,77,19,30.60,30.43,5,1,0,0.00
2013-11-30,56,42,27,38,33,27,99,74,45,30.42,30.17,13,3,0,0.00
2013-12-1,60,47,35,49,43,35,99,85,66,30.17,29.94,4,1,0,0.00
2013-12-2,60,46,33,57,36,-57,99,78,2,29.94,29.73,8,1,0,0.00
2013-12-3,62,50,41,61,42,-41,99,83,2,29.79,29.71,9,1,0,0.00
2013-12-4,69,62,45,69,54,-50,99,82,1,29.84,29.62,15,5,0,0.00
2013-12-5,55,35,25,48,33,24,99,93,76,30.25,29.84,14,7,0,0.01
2013-12-6,24,22,17,24,16,-2,99,80,37,30.54,30.22,9,5,0,0.00
2013-12-7,23,17,8,16,6,-5,85,65,33,30.68,30.42,7,4,0,0.00
2013-12-8,32,27,20,31,23,12,99,88,50,30.42,30.02,8,4,0,0.00
2013-12-9,32,28,22,30,19,10,99,70,44,30.32,30.12,12,4,0,0.00
2013-12-10,36,26,17,26,21,8,99,85,47,30.38,30.27,8,3,0,0.00
2013-12-11,37,24,14,28,19,7,99,81,41,30.65,30.36,14,4,0,0.01
2013-12-12,32,20,4,28,11,3,99,71,41,30.65,30.34,6,2,0,0.00
2013-12-13,41,31,18,35,27,18,99,88,58,30.34,30.01,8,3,0,0.11
2013-12-14,39,34,30,38,26,-30,99,83,5,30.12,29.83,15,5,0,0.97
2013-12-15,34,30,27,34,19,3,99,65,30,30.24,30.11,11,5,0,0.00
2013-12-16,49,39,32,46,18,-56,99,56,3,30.11,30.03,7,3,0,0.22
2013-12-17,44,34,27,40,19,-60,99,66,4,30.29,30.10,9,3,0,0.00
2013-12-18,49,38,22,38,27,-59,99,70,6,30.32,30.04,12,4,0,0.00
2013-12-19,58,52,44,50,45,38,89,77,67,30.06,29.89,16,6,0,0.00
2013-12-20,65,60,47,64,54,-42,98,86,21,29.89,29.79,17,7,0,0.51
2013-12-21,47,40,37,46,40,36,98,98,98,29.83,29.52,9,4,0,5.46
2013-12-22,44,38,33,43,31,-37,98,81,3,30.24,29.66,15,5,0,0.01
2013-12-23,32,28,22,24,20,13,82,70,49,30.54,30.24,12,6,0,0.00
2013-12-24,25,19,11,21,11,5,99,73,51,30.65,30.41,14,4,0,0.00
2013-12-25,40,30,17,34,25,15,99,83,63,30.43,30.27,9,3,0,0.00
2013-12-26,47,35,25,40,29,-22,99,82,6,30.42,30.31,6,2,0,0.00
2013-12-27,54,40,28,41,32,-53,99,82,1,30.43,30.31,7,2,0,0.00
2013-12-28,50,42,32,47,32,-1,99,73,16,30.32,29.96,5,2,0,0.00
2013-12-29,47,35,23,46,29,-38,99,85,2,30.25,29.91,15,6,0,0.04
2013-12-30,37,22,14,37,16,11,99,77,54,30.35,30.25,8,3,0,0.00
2013-12-31,44,33,20,38,25,16,99,75,49,30.44,30.27,10,3,0,0.00
2014-1-1,46,39,30,40,34,27,99,84,63,30.28,29.97,10,3,0,0.03
2014-1-2,41,23,14,40,16,2,99,75,47,30.47,29.96,21,10,0,0.01